createdAt,value
2018-05-02T00:00:30.908Z,15.13
2018-05-02T00:03:02.688Z,16.10
2018-05-02T00:05:31.388Z,16.13
2018-05-02T00:08:11.655Z,16.73
2018-05-02T00:10:51.491Z,16.13
2018-05-02T00:13:43.256Z,15.67
2018-05-02T00:16:11.900Z,18.43
2018-05-02T00:18:52.482Z,19.63
2018-05-02T00:21:22.477Z,16.97
2018-05-02T00:23:52.647Z,22.47
2018-05-02T00:26:31.211Z,20.60
2018-05-02T00:32:10.320Z,16.70
2018-05-02T00:34:38.763Z,21.27
2018-05-02T00:37:22.752Z,20.43
2018-05-02T00:39:51.177Z,21.10
2018-05-02T00:42:36.390Z,19.63
2018-05-02T00:45:04.837Z,20.70
2018-05-02T00:50:30.183Z,20.60
2018-05-02T00:53:11.061Z,23.33
2018-05-02T00:55:39.529Z,24.73
2018-05-02T00:58:08.203Z,20.67
2018-05-02T01:00:43.312Z,22.23
2018-05-02T01:03:28.907Z,20.47
2018-05-02T01:06:04.032Z,22.83
2018-05-02T01:08:45.595Z,22.63
2018-05-02T01:11:31.489Z,20.50
2018-05-02T01:13:59.939Z,23.43
2018-05-02T01:16:40.885Z,27.37
2018-05-02T01:19:26.734Z,21.03
2018-05-02T01:22:02.512Z,22.87
2018-05-02T01:24:34.633Z,25.40
2018-05-02T01:27:06.983Z,22.17
2018-05-02T01:29:36.604Z,22.63
2018-05-02T01:32:06.209Z,25.10
2018-05-02T01:34:37.052Z,22.87
2018-05-02T01:37:05.729Z,23.63
2018-05-02T01:42:27.980Z,23.87
2018-05-02T01:45:14.752Z,25.27
2018-05-02T01:47:43.173Z,25.50
2018-05-02T01:50:24.419Z,22.27
2018-05-02T01:52:56.904Z,24.57
2018-05-02T01:55:24.614Z,22.73
2018-05-02T01:57:52.108Z,25.90
2018-05-02T02:00:19.847Z,23.73
2018-05-02T02:02:48.194Z,21.87
2018-05-02T02:05:21.789Z,21.27
2018-05-02T02:07:55.665Z,21.23
2018-05-02T02:10:35.424Z,23.70
2018-05-02T02:13:20.971Z,21.50
2018-05-02T02:15:52.561Z,22.43
2018-05-02T02:18:30.687Z,21.63
2018-05-02T02:21:00.306Z,21.27
2018-05-02T02:23:48.098Z,20.70
2018-05-02T02:26:16.752Z,20.13
2018-05-02T02:28:44.243Z,21.37
2018-05-02T02:31:15.342Z,21.03
2018-05-02T02:33:49.824Z,20.20
2018-05-02T02:36:24.645Z,25.10
2018-05-02T02:41:54.919Z,19.50
2018-05-02T02:44:30.676Z,17.07
2018-05-02T02:46:59.446Z,18.43
2018-05-02T02:49:28.586Z,17.13
2018-05-02T02:51:58.315Z,19.07
2018-05-02T02:54:29.426Z,17.87
2018-05-02T02:57:18.130Z,15.57
2018-05-02T02:59:46.046Z,17.23
2018-05-02T03:02:20.354Z,23.00
2018-05-02T03:04:48.339Z,17.67
2018-05-02T03:07:16.819Z,17.17
2018-05-02T03:10:08.908Z,14.97
2018-05-02T03:12:49.242Z,14.87
2018-05-02T03:15:38.558Z,14.40
2018-05-02T03:18:16.429Z,17.27
2018-05-02T03:20:44.474Z,13.67
2018-05-02T03:23:13.145Z,13.90
2018-05-02T03:25:46.467Z,15.50
2018-05-02T03:28:31.965Z,18.93
2018-05-02T03:31:04.056Z,16.83
2018-05-02T03:33:32.473Z,17.60
2018-05-02T03:36:11.583Z,18.90
2018-05-02T03:38:42.533Z,17.80
2018-05-02T03:41:21.051Z,13.60
2018-05-02T03:43:54.525Z,15.50
2018-05-02T03:46:43.571Z,14.67
2018-05-02T03:49:29.839Z,15.97
2018-05-02T03:51:57.516Z,17.37
2018-05-02T03:54:25.026Z,16.33
2018-05-02T03:56:52.701Z,15.00
2018-05-02T03:59:33.216Z,13.07
2018-05-02T04:02:17.083Z,14.17
2018-05-02T04:04:57.856Z,13.17
2018-05-02T04:07:26.465Z,13.80
2018-05-02T04:09:59.475Z,12.40
2018-05-02T04:12:28.157Z,17.57
2018-05-02T04:15:00.242Z,17.53
2018-05-02T04:17:33.887Z,15.93
2018-05-02T04:20:02.540Z,13.47
2018-05-02T04:22:33.952Z,13.23
2018-05-02T04:25:01.446Z,18.10
2018-05-02T04:27:34.112Z,15.97
2018-05-02T04:30:03.789Z,14.67
2018-05-02T04:32:42.518Z,14.40
2018-05-02T04:35:12.138Z,17.20
2018-05-02T04:37:39.633Z,17.07
2018-05-02T04:40:10.157Z,14.30
2018-05-02T04:42:42.815Z,17.07
2018-05-02T04:45:10.315Z,17.37
2018-05-02T04:47:38.025Z,14.57
2018-05-02T04:50:05.537Z,13.50
2018-05-02T04:52:33.246Z,13.50
2018-05-02T04:55:02.869Z,14.27
2018-05-02T04:57:30.365Z,15.03
2018-05-02T04:59:58.090Z,18.93
2018-05-02T05:02:29.859Z,12.90
2018-05-02T05:05:01.620Z,15.77
2018-05-02T05:07:42.877Z,15.90
2018-05-02T05:10:14.039Z,16.40
2018-05-02T05:12:53.471Z,13.30
2018-05-02T05:18:13.899Z,13.73
2018-05-02T05:20:41.400Z,12.67
2018-05-02T05:23:09.113Z,13.70
2018-05-02T05:25:36.607Z,14.80
2018-05-02T05:28:09.311Z,12.83
2018-05-02T05:30:57.029Z,17.13
2018-05-02T05:33:29.067Z,15.30
2018-05-02T05:36:08.210Z,15.90
2018-05-02T05:38:45.763Z,18.40
2018-05-02T05:41:21.527Z,15.90
2018-05-02T05:43:51.132Z,16.00
2018-05-02T05:46:36.371Z,19.27
2018-05-02T05:49:04.806Z,15.67
2018-05-02T05:51:35.321Z,15.77
2018-05-02T05:54:04.060Z,15.53
2018-05-02T05:56:31.551Z,19.23
2018-05-02T05:59:00.169Z,17.83
2018-05-02T06:01:27.687Z,20.40
2018-05-02T06:03:58.755Z,18.37
2018-05-02T06:06:28.390Z,16.93
2018-05-02T06:09:05.970Z,17.53
2018-05-02T06:11:44.759Z,16.03
2018-05-02T06:14:17.806Z,19.13
2018-05-02T06:16:52.291Z,19.40
2018-05-02T06:19:21.323Z,17.03
2018-05-02T06:21:57.019Z,18.20
2018-05-02T06:24:32.490Z,18.30
2018-05-02T06:27:10.362Z,19.33
2018-05-02T06:29:43.400Z,18.83
2018-05-02T06:32:13.009Z,19.97
2018-05-02T06:34:42.154Z,20.00
2018-05-02T06:37:15.288Z,15.30
2018-05-02T06:39:54.090Z,17.60
2018-05-02T06:42:27.088Z,17.00
2018-05-02T06:44:56.720Z,17.30
2018-05-02T06:47:27.700Z,15.83
2018-05-02T06:50:08.806Z,16.67
2018-05-02T06:52:38.438Z,19.53
2018-05-02T06:55:12.071Z,12.87
2018-05-02T06:57:43.506Z,17.63
2018-05-02T07:00:19.506Z,17.83
2018-05-02T07:02:51.638Z,14.63
2018-05-02T07:05:22.448Z,14.07
2018-05-02T07:07:55.162Z,14.97
2018-05-02T07:10:23.933Z,13.40
2018-05-02T07:12:53.630Z,16.80
2018-05-02T07:15:35.898Z,14.33
2018-05-02T07:18:08.942Z,12.50
2018-05-02T07:20:39.777Z,14.43
2018-05-02T07:23:15.810Z,11.13
2018-05-02T07:25:44.536Z,15.83
2018-05-02T07:28:23.622Z,13.40
2018-05-02T07:31:05.200Z,14.43
2018-05-02T07:33:33.918Z,12.50
2018-05-02T07:36:14.898Z,11.30
2018-05-02T07:38:49.710Z,10.50
2018-05-02T07:41:32.199Z,8.50
2018-05-02T07:44:04.922Z,12.13
2018-05-02T07:46:44.022Z,11.00
2018-05-02T07:49:15.222Z,9.70
2018-05-02T07:51:49.686Z,9.93
2018-05-02T07:54:17.207Z,9.90
2018-05-02T07:56:57.559Z,8.20
2018-05-02T07:59:25.058Z,10.40
2018-05-02T08:01:54.614Z,7.93
2018-05-02T08:04:23.302Z,6.63
2018-05-02T08:06:55.382Z,9.83
2018-05-02T08:09:25.644Z,9.03
2018-05-02T08:11:55.196Z,8.73
2018-05-02T08:14:34.322Z,8.17
2018-05-02T08:17:04.710Z,7.53
2018-05-02T08:19:53.056Z,8.00
2018-05-02T08:22:25.961Z,11.43
2018-05-02T08:24:58.357Z,8.00
2018-05-02T08:27:26.974Z,7.70
2018-05-02T08:29:54.716Z,5.90
2018-05-02T08:32:22.218Z,9.17
2018-05-02T08:34:49.968Z,4.73
2018-05-02T08:37:17.467Z,7.33
2018-05-02T08:39:49.736Z,5.57
2018-05-02T08:42:18.478Z,7.90
2018-05-02T08:44:56.334Z,5.03
2018-05-02T08:47:32.116Z,6.97
2018-05-02T08:50:01.724Z,4.73
2018-05-02T08:52:29.216Z,3.43
2018-05-02T08:54:58.810Z,6.77
2018-05-02T08:57:29.727Z,4.50
2018-05-02T08:59:57.394Z,4.87
2018-05-02T09:02:36.199Z,6.07
2018-05-02T09:05:05.822Z,5.73
2018-05-02T09:07:48.614Z,6.50
2018-05-02T09:10:17.510Z,6.90
2018-05-02T09:12:50.948Z,5.63
2018-05-02T09:15:25.417Z,5.90
2018-05-02T09:17:55.168Z,5.93
2018-05-02T09:20:32.616Z,5.33
2018-05-02T09:23:07.485Z,3.30
2018-05-02T09:25:41.091Z,4.43
2018-05-02T09:31:02.109Z,5.47
2018-05-02T09:33:48.605Z,6.10
2018-05-02T09:36:19.774Z,3.63
2018-05-02T09:38:47.260Z,4.03
2018-05-02T09:41:14.765Z,6.20
2018-05-02T09:43:59.609Z,5.20
2018-05-02T09:46:39.709Z,5.47
2018-05-02T09:49:14.203Z,5.40
2018-05-02T09:51:50.251Z,3.53
2018-05-02T09:54:37.151Z,3.90
2018-05-02T09:57:06.717Z,7.53
2018-05-02T09:59:41.226Z,7.53
2018-05-02T10:02:10.849Z,7.17
2018-05-02T10:04:53.308Z,5.93
2018-05-02T10:07:23.030Z,6.00
2018-05-02T10:09:58.447Z,4.47
2018-05-02T10:12:28.510Z,8.53
2018-05-02T10:15:08.123Z,7.87
2018-05-02T10:20:51.875Z,3.83
2018-05-02T10:23:20.518Z,4.33
2018-05-02T10:25:50.153Z,3.97
2018-05-02T11:34:55.805Z,5.03
2018-05-02T11:37:48.249Z,7.90
2018-05-02T11:40:30.888Z,5.90
2018-05-02T11:43:10.976Z,4.80
2018-05-02T11:45:44.981Z,5.53
2018-05-02T11:48:16.436Z,4.53
2018-05-02T11:53:55.201Z,4.67
2018-05-02T11:56:23.683Z,5.53
2018-05-02T11:58:56.029Z,4.30
2018-05-02T12:01:23.559Z,7.50
2018-05-02T12:03:55.558Z,6.70
2018-05-02T12:06:25.197Z,10.27
2018-05-02T12:08:54.469Z,6.93
2018-05-02T12:11:34.526Z,6.33
2018-05-02T12:14:03.217Z,4.10
2018-05-02T12:16:31.901Z,8.37
2018-05-02T12:19:01.541Z,4.07
2018-05-02T12:21:37.546Z,5.87
2018-05-02T12:24:09.665Z,8.50
2018-05-02T12:26:56.505Z,5.30
2018-05-02T12:32:18.711Z,3.60
2018-05-02T12:37:53.263Z,6.37
2018-05-02T12:40:29.611Z,6.03
2018-05-02T12:46:01.404Z,7.40
2018-05-02T12:48:36.820Z,5.83
2018-05-02T12:51:26.175Z,5.47
2018-05-02T12:53:56.793Z,4.10
2018-05-02T12:56:24.441Z,5.37
2018-05-02T12:58:58.345Z,5.07
2018-05-02T13:01:48.255Z,6.07
2018-05-02T13:07:13.275Z,6.13
2018-05-02T13:09:51.709Z,6.17
2018-05-02T13:12:25.322Z,6.90
2018-05-02T13:14:52.865Z,6.20
2018-05-02T13:17:21.175Z,7.43
2018-05-02T13:19:50.183Z,5.43
2018-05-02T13:22:24.998Z,6.57
2018-05-02T13:24:58.880Z,5.93
2018-05-02T13:27:27.334Z,4.67
2018-05-02T13:30:05.167Z,4.27
2018-05-02T13:32:47.676Z,4.67
2018-05-02T13:35:20.688Z,4.43
2018-05-02T13:38:11.568Z,10.53
2018-05-02T13:43:44.255Z,6.30
2018-05-02T13:46:11.737Z,7.40
2018-05-02T13:48:39.453Z,6.93
2018-05-02T13:51:17.663Z,10.43
2018-05-02T13:54:05.135Z,3.73
2018-05-02T13:56:43.575Z,5.10
2018-05-02T13:59:21.467Z,11.47
2018-05-02T14:02:06.120Z,7.03
2018-05-02T14:07:29.069Z,6.50
2018-05-02T14:09:57.711Z,9.90
2018-05-02T14:12:27.327Z,8.17
2018-05-02T14:15:14.068Z,6.93
2018-05-02T14:17:42.532Z,3.50
2018-05-02T14:20:18.587Z,3.90
2018-05-02T14:22:52.401Z,8.23
2018-05-02T14:25:24.083Z,4.43
2018-05-02T14:27:51.702Z,5.47
2018-05-02T14:30:19.193Z,3.63
2018-05-02T14:32:49.489Z,5.27
2018-05-02T14:35:23.906Z,10.40
2018-05-02T14:37:52.587Z,7.40
2018-05-02T14:40:21.265Z,3.37
2018-05-02T14:42:50.931Z,6.77
2018-05-02T14:45:22.667Z,3.17
2018-05-02T14:47:54.135Z,3.70
2018-05-02T14:50:21.637Z,5.37
2018-05-02T14:52:53.953Z,11.03
2018-05-02T14:55:35.831Z,9.80
2018-05-02T14:58:06.698Z,5.40
2018-05-02T15:00:35.389Z,3.57
2018-05-02T15:03:04.965Z,4.20
2018-05-02T15:05:40.529Z,3.23
2018-05-02T15:08:31.563Z,3.80
2018-05-02T15:11:00.223Z,3.70
2018-05-02T15:13:29.868Z,5.33
2018-05-02T15:15:57.607Z,6.53
2018-05-02T15:18:27.205Z,6.60
2018-05-02T15:20:55.919Z,4.63
2018-05-02T15:23:23.731Z,5.80
2018-05-02T15:25:51.431Z,5.83
2018-05-02T15:28:20.738Z,3.33
2018-05-02T15:30:50.028Z,9.83
2018-05-02T15:33:18.865Z,3.53
2018-05-02T15:35:49.126Z,7.60
2018-05-02T15:38:17.625Z,4.17
2018-05-02T15:40:53.051Z,6.70
2018-05-02T15:43:37.398Z,4.93
2018-05-02T15:46:09.571Z,3.60
2018-05-02T15:48:43.695Z,5.90
2018-05-02T15:51:23.431Z,5.70
2018-05-02T15:53:52.166Z,5.13
2018-05-02T15:56:30.936Z,4.87
2018-05-02T16:01:56.924Z,4.07
2018-05-02T16:04:26.203Z,5.27
2018-05-02T16:06:54.609Z,6.83
2018-05-02T16:09:25.727Z,6.13
2018-05-02T16:11:53.237Z,5.63
2018-05-02T16:14:31.060Z,4.37
2018-05-02T16:17:00.031Z,7.67
2018-05-02T16:19:27.549Z,3.47
2018-05-02T16:22:03.908Z,6.73
2018-05-02T16:24:32.639Z,5.23
2018-05-02T16:27:07.771Z,6.63
2018-05-02T16:29:37.365Z,3.23
2018-05-02T16:32:04.860Z,4.63
2018-05-02T16:34:32.883Z,3.37
2018-05-02T16:37:04.372Z,5.30
2018-05-02T16:39:36.757Z,6.53
2018-05-02T16:42:06.352Z,6.47
2018-05-02T16:44:39.877Z,3.53
2018-05-02T16:47:22.072Z,6.20
2018-05-02T16:49:50.555Z,3.93
2018-05-02T16:52:21.038Z,7.60
2018-05-02T16:54:50.641Z,5.03
2018-05-02T16:57:24.535Z,4.00
2018-05-02T17:00:03.053Z,4.20
2018-05-02T17:02:38.791Z,7.10
2018-05-02T17:05:17.603Z,4.60
2018-05-02T17:08:01.954Z,5.40
2018-05-02T17:10:29.479Z,4.13
2018-05-02T17:12:58.183Z,5.33
2018-05-02T17:15:31.745Z,5.33
2018-05-02T17:18:06.243Z,3.63
2018-05-02T17:20:50.549Z,4.73
2018-05-02T17:23:20.739Z,5.53
2018-05-02T17:25:59.329Z,4.73
2018-05-02T17:28:28.079Z,5.23
2018-05-02T17:31:02.419Z,5.77
2018-05-02T17:33:30.077Z,4.27
2018-05-02T17:35:59.647Z,4.93
2018-05-02T17:38:29.257Z,3.63
2018-05-02T17:41:03.757Z,7.20
2018-05-02T17:43:31.267Z,4.20
2018-05-02T17:46:00.867Z,5.63
2018-05-02T17:48:45.769Z,5.67
2018-05-02T17:51:14.249Z,6.13
2018-05-02T17:53:45.775Z,3.87
2018-05-02T17:56:14.059Z,5.87
2018-05-02T17:59:06.769Z,5.77
2018-05-02T18:01:40.237Z,4.07
2018-05-02T18:04:13.867Z,4.70
2018-05-02T18:06:45.037Z,6.37
2018-05-02T18:09:19.848Z,4.60
2018-05-02T18:12:04.810Z,6.13
2018-05-02T18:14:33.172Z,3.87
2018-05-02T18:17:00.703Z,6.70
2018-05-02T18:19:28.436Z,3.70
2018-05-02T18:21:56.070Z,6.23
2018-05-02T18:24:23.650Z,3.87
2018-05-02T18:27:02.202Z,3.53
2018-05-02T18:29:32.449Z,5.43
2018-05-02T18:32:01.333Z,3.57
2018-05-02T18:34:37.454Z,5.20
2018-05-02T18:37:04.985Z,4.93
2018-05-02T18:39:46.266Z,3.20
2018-05-02T18:42:22.483Z,3.00
2018-05-02T18:44:58.370Z,3.47
2018-05-02T18:47:26.061Z,4.67
2018-05-02T18:50:05.810Z,5.07
2018-05-02T18:52:35.435Z,3.30
2018-05-02T18:55:04.491Z,9.50
2018-05-02T18:57:32.229Z,11.00
2018-05-02T19:00:05.845Z,6.10
2018-05-02T19:05:31.099Z,4.23
2018-05-02T19:08:02.399Z,8.40
2018-05-02T19:13:16.285Z,6.63
2018-05-02T19:15:44.036Z,4.00
2018-05-02T19:24:08.963Z,5.83
2018-05-02T19:26:41.753Z,11.67
2018-05-02T19:29:20.210Z,6.53
2018-05-02T19:31:57.008Z,7.90
2018-05-02T19:34:26.542Z,6.63
2018-05-02T19:37:00.017Z,7.23
2018-05-02T19:39:27.622Z,6.43
2018-05-02T19:42:07.809Z,6.30
2018-05-02T19:44:35.433Z,7.87
2018-05-02T19:47:04.114Z,8.27
2018-05-02T19:49:46.274Z,9.13
2018-05-02T19:52:19.353Z,7.57
2018-05-02T19:54:47.057Z,9.23
2018-05-02T19:57:19.411Z,6.67
2018-05-02T20:00:05.553Z,8.27
2018-05-02T20:02:43.377Z,5.67
2018-05-02T20:05:11.242Z,6.43
2018-05-02T20:07:55.531Z,5.63
2018-05-02T20:10:33.424Z,6.97
2018-05-02T20:13:14.997Z,5.97
2018-05-02T20:15:46.933Z,8.47
2018-05-02T20:18:22.321Z,6.27
2018-05-02T20:20:51.057Z,7.13
2018-05-02T20:23:37.497Z,7.37
2018-05-02T20:26:23.110Z,6.27
2018-05-02T20:28:55.583Z,6.43
2018-05-02T20:31:28.454Z,9.63
2018-05-02T20:33:57.199Z,7.03
2018-05-02T20:36:30.503Z,6.53
2018-05-02T20:39:01.365Z,8.30
2018-05-02T20:41:43.771Z,8.90
2018-05-02T20:44:12.323Z,9.87
2018-05-02T20:46:45.488Z,10.47
2018-05-02T20:49:13.056Z,12.97
2018-05-02T20:51:44.120Z,12.37
2018-05-02T20:54:12.467Z,10.10
2018-05-02T20:56:42.244Z,8.53
2018-05-02T20:59:13.375Z,9.50
2018-05-02T21:01:42.859Z,9.80
2018-05-02T21:04:13.663Z,7.87
2018-05-02T21:06:50.915Z,9.60
2018-05-02T21:09:26.998Z,9.13
2018-05-02T21:11:57.216Z,7.40
2018-05-02T21:14:26.003Z,7.53
2018-05-02T21:19:35.290Z,6.93
2018-05-02T21:22:02.813Z,8.43
2018-05-02T21:24:32.470Z,7.87
2018-05-02T21:27:06.300Z,8.47
2018-05-02T21:29:36.768Z,9.67
2018-05-02T21:32:09.804Z,8.27
2018-05-02T21:34:42.159Z,7.40
2018-05-02T21:37:13.297Z,10.97
2018-05-02T21:39:41.993Z,6.37
2018-05-02T21:42:10.390Z,8.97
2018-05-02T21:44:37.899Z,8.53
2018-05-02T21:47:08.979Z,8.30
2018-05-02T21:49:38.294Z,6.43
2018-05-02T21:52:10.356Z,8.30
2018-05-02T21:54:42.096Z,9.00
2018-05-02T21:57:21.148Z,5.07
2018-05-02T21:59:48.744Z,6.37
2018-05-02T22:02:16.453Z,7.17
2018-05-02T22:04:49.446Z,8.57
2018-05-02T22:07:17.612Z,7.40
2018-05-02T22:09:50.246Z,7.83
2018-05-02T22:12:18.878Z,6.63
2018-05-02T22:14:49.698Z,8.33
2018-05-02T22:17:24.540Z,7.87
2018-05-02T22:19:57.234Z,6.97
2018-05-02T22:22:26.868Z,9.40
2018-05-02T22:24:54.368Z,10.40
2018-05-02T22:27:23.000Z,8.20
2018-05-02T22:29:50.514Z,7.23
2018-05-02T22:32:21.268Z,8.80
2018-05-02T22:34:56.390Z,7.00
2018-05-02T22:37:36.358Z,10.07
2018-05-02T22:40:05.162Z,8.67
2018-05-02T22:42:39.024Z,7.53
2018-05-02T22:45:09.916Z,7.80
2018-05-02T22:47:50.828Z,10.17
2018-05-02T22:50:25.664Z,9.97
2018-05-02T22:52:55.336Z,10.67
2018-05-02T22:55:22.850Z,9.30
2018-05-02T22:57:50.579Z,8.93
2018-05-02T23:00:18.082Z,8.67
2018-05-02T23:02:45.819Z,9.03
2018-05-02T23:05:16.990Z,9.47
2018-05-02T23:07:46.480Z,9.73
2018-05-02T23:10:14.896Z,11.40
2018-05-02T23:12:43.888Z,10.70
2018-05-02T23:15:13.496Z,13.20
2018-05-02T23:17:45.272Z,11.37
2018-05-02T23:20:17.940Z,15.40
2018-05-02T23:22:45.468Z,11.50
2018-05-02T23:25:13.178Z,14.53
2018-05-02T23:27:40.682Z,12.70
2018-05-02T23:30:10.259Z,17.70
2018-05-02T23:32:50.260Z,14.57
2018-05-02T23:35:22.376Z,16.43
2018-05-02T23:37:51.036Z,16.10
2018-05-02T23:40:20.668Z,17.40
2018-05-02T23:42:48.247Z,17.17
2018-05-02T23:45:17.724Z,19.03
2018-05-02T23:47:52.259Z,20.80
2018-05-02T23:50:31.028Z,17.03
2018-05-02T23:53:02.234Z,19.17
2018-05-02T23:55:31.824Z,20.03
2018-05-02T23:58:04.550Z,19.00
